createdAt,value
2018-07-17T15:37:53.290Z,40.17
2018-07-17T15:38:53.236Z,40.25
2018-07-17T15:39:53.199Z,39.97
2018-07-17T15:40:53.138Z,39.86
2018-07-17T15:41:53.080Z,39.56
2018-07-17T15:42:53.057Z,39.46
2018-07-17T15:43:52.945Z,38.37
2018-07-17T15:44:52.877Z,38.37
2018-07-17T15:45:59.911Z,39.36
2018-07-17T15:46:52.736Z,38.37
2018-07-17T15:47:52.668Z,39.95
2018-07-17T15:48:52.564Z,40.15
2018-07-17T15:49:52.464Z,40.05
2018-07-17T15:50:52.378Z,38.87
2018-07-17T15:51:52.313Z,38.47
2018-07-17T15:52:52.199Z,38.47
2018-07-17T15:53:52.100Z,38.37
2018-07-17T15:54:52.013Z,38.35
2018-07-17T15:55:51.947Z,38.96
2018-07-17T15:56:51.844Z,38.47
2018-07-17T15:57:51.713Z,39.34
2018-07-17T15:58:51.642Z,38.87
2018-07-17T15:59:51.605Z,38.75
2018-07-17T16:00:51.439Z,38.67
2018-07-17T16:01:51.299Z,38.28
2018-07-17T16:02:51.198Z,38.37
2018-07-17T16:03:51.109Z,38.77
2018-07-17T16:04:51.026Z,38.57
2018-07-17T16:05:51.000Z,38.67
2018-07-17T16:06:50.796Z,38.77
2018-07-17T16:07:50.675Z,39.65
2018-07-17T16:08:50.592Z,39.06
2018-07-17T16:09:50.462Z,38.37
2018-07-17T16:10:50.348Z,38.28
2018-07-17T16:11:50.240Z,38.57
2018-07-17T16:12:50.165Z,37.98
2018-07-17T16:13:50.218Z,38.08
2018-07-17T16:14:49.961Z,37.78
2018-07-17T16:15:49.822Z,38.00
2018-07-17T16:16:49.704Z,37.59
2018-07-17T16:17:49.605Z,37.88
2018-07-17T16:18:49.484Z,38.10
2018-07-17T16:19:49.400Z,37.80
2018-07-17T16:20:49.257Z,37.30
2018-07-17T16:21:49.140Z,37.60
2018-07-17T16:22:49.036Z,37.52
2018-07-17T16:23:48.949Z,37.13
2018-07-17T16:24:48.883Z,37.80
2018-07-17T16:25:48.713Z,37.80
2018-07-17T16:26:48.599Z,38.02
2018-07-17T16:27:48.519Z,37.82
2018-07-17T16:28:48.382Z,38.61
2018-07-17T16:29:48.273Z,38.41
2018-07-17T16:30:48.167Z,39.00
2018-07-17T16:31:48.092Z,38.12
2018-07-17T16:32:47.954Z,38.12
2018-07-17T16:33:47.852Z,38.71
2018-07-17T16:34:47.756Z,38.61
2018-07-17T16:35:47.684Z,38.71
2018-07-17T16:36:47.620Z,38.89
2018-07-17T16:37:47.438Z,38.41
2018-07-17T16:38:47.882Z,38.21
2018-07-17T16:39:47.261Z,38.21
2018-07-17T16:40:47.127Z,38.12
2018-07-17T16:41:47.023Z,38.10
2018-07-17T16:42:46.936Z,37.92
2018-07-17T16:43:46.863Z,38.00
2018-07-17T16:44:46.709Z,37.90
2018-07-17T16:45:46.620Z,37.90
2018-07-17T16:46:46.495Z,38.39
2018-07-17T16:47:46.390Z,37.51
2018-07-17T18:45:10.319Z,43.34
2018-07-17T18:46:10.271Z,43.96
2018-07-17T18:47:10.262Z,44.48
2018-07-17T18:48:10.323Z,45.11
2018-07-17T18:49:10.243Z,45.11
2018-07-17T18:50:12.867Z,45.33
2018-07-17T18:51:10.232Z,45.93
2018-07-17T18:52:10.290Z,45.85
2018-07-17T18:53:10.198Z,45.85
2018-07-17T18:54:17.250Z,45.55
2018-07-17T18:55:10.175Z,46.05
2018-07-17T18:56:10.163Z,46.05
2018-07-17T18:57:10.220Z,46.47
2018-07-17T18:58:10.193Z,46.37
2018-07-17T18:59:10.737Z,45.87
2018-07-17T19:00:10.118Z,45.28
2018-07-17T19:01:10.109Z,45.78
2018-07-17T19:02:10.103Z,45.97
2018-07-17T19:03:10.119Z,45.97
2018-07-17T19:04:10.077Z,46.27
2018-07-17T19:05:10.068Z,46.09
2018-07-17T19:06:10.060Z,46.39
2018-07-17T19:07:10.073Z,46.30
2018-07-17T19:08:10.041Z,46.59
2018-07-17T19:09:10.058Z,46.39
2018-07-17T19:10:10.009Z,46.39
2018-07-17T19:11:09.998Z,46.30
2018-07-17T19:12:09.985Z,46.59
2018-07-17T19:13:10.002Z,46.01
2018-07-17T19:14:10.002Z,46.31
2018-07-17T19:15:10.047Z,46.42
2018-07-17T19:16:09.945Z,46.72
2018-07-17T19:17:09.975Z,47.14
2018-07-17T19:18:09.947Z,46.73
2018-07-17T19:19:09.959Z,46.73
2018-07-17T19:20:09.894Z,47.14
2018-07-17T19:21:09.881Z,47.33
2018-07-17T19:22:09.869Z,46.44
2018-07-17T19:23:09.871Z,46.86
2018-07-17T19:24:09.893Z,46.86
2018-07-17T19:25:09.839Z,46.76
2018-07-17T19:26:09.833Z,47.36
2018-07-17T19:27:09.823Z,47.36
2018-07-17T19:28:09.805Z,46.66
2018-07-17T19:29:09.884Z,46.56
2018-07-17T19:30:09.905Z,46.86
2018-07-17T19:31:09.820Z,46.76
2018-07-17T19:32:09.762Z,47.08
2018-07-17T19:33:09.751Z,47.08
2018-07-17T19:34:09.774Z,48.38
2018-07-17T19:35:09.727Z,47.38
2018-07-17T19:36:09.717Z,47.08
2018-07-17T19:37:09.704Z,47.78
2018-07-17T19:38:09.710Z,47.38
2018-07-17T19:39:09.719Z,47.30
2018-07-17T19:40:09.669Z,47.20
2018-07-17T19:41:09.658Z,48.20
2018-07-17T19:42:09.731Z,46.80
2018-07-17T19:43:09.641Z,47.30
2018-07-17T19:44:09.625Z,47.10
2018-07-17T19:45:09.619Z,47.42
2018-07-17T19:46:09.624Z,47.71
2018-07-17T19:47:09.633Z,47.22
2018-07-17T19:48:09.590Z,47.63
2018-07-17T19:49:09.575Z,47.42
2018-07-17T19:50:09.560Z,47.53
2018-07-17T19:51:09.554Z,47.13
2018-07-17T19:52:09.568Z,47.03
2018-07-17T19:53:09.530Z,48.05
2018-07-17T19:54:09.517Z,47.75
2018-07-17T19:55:09.517Z,48.45
2018-07-17T19:56:09.495Z,47.25
2018-07-17T19:57:09.529Z,48.17
2018-07-17T19:58:09.568Z,47.07
2018-07-17T19:59:09.469Z,46.65
2018-07-17T20:00:09.452Z,47.25
2018-07-17T20:01:09.437Z,47.57
2018-07-17T20:02:09.463Z,47.27
2018-07-17T20:03:09.415Z,47.57
2018-07-17T20:04:09.406Z,46.37
2018-07-17T20:05:09.397Z,46.37
2018-07-17T20:06:09.416Z,46.27
2018-07-17T20:07:09.386Z,46.77
2018-07-17T20:08:09.413Z,45.57
2018-07-17T20:09:09.350Z,45.77
2018-07-17T20:10:09.379Z,45.47
2018-07-17T20:11:09.330Z,45.67
2018-07-17T20:12:09.320Z,45.97
2018-07-17T20:13:09.352Z,45.17
2018-07-17T20:14:09.309Z,45.67
2018-07-17T20:15:09.280Z,45.67
2018-07-17T20:16:09.273Z,45.47
2018-07-17T20:17:09.259Z,45.77
2018-07-17T20:18:09.294Z,45.39
2018-07-17T20:19:09.253Z,45.20
2018-07-17T20:20:09.236Z,45.37
2018-07-17T20:21:09.222Z,45.77
2018-07-17T20:22:09.238Z,45.29
2018-07-17T20:23:09.220Z,45.09
2018-07-17T20:24:09.189Z,45.81
2018-07-17T20:25:09.235Z,45.62
2018-07-17T20:26:09.164Z,45.42
2018-07-17T20:27:09.156Z,45.62
2018-07-17T20:28:09.146Z,45.21
2018-07-17T20:29:09.147Z,45.39
2018-07-17T20:30:09.147Z,45.72
2018-07-17T20:31:09.108Z,45.81
2018-07-17T20:32:09.097Z,45.72
2018-07-17T20:33:09.095Z,46.12
2018-07-17T20:34:09.116Z,46.31
2018-07-17T20:35:09.073Z,46.01
2018-07-17T20:36:09.048Z,46.44
2018-07-17T20:37:09.043Z,46.54
2018-07-17T20:38:09.104Z,46.64
2018-07-17T20:39:09.062Z,46.54
2018-07-17T20:40:09.012Z,47.04
2018-07-17T20:41:09.013Z,47.04
2018-07-17T20:42:08.999Z,47.14
2018-07-17T20:43:08.996Z,47.14
2018-07-17T20:44:09.017Z,46.84
2018-07-17T20:45:08.960Z,46.94
2018-07-17T20:46:08.947Z,46.94
2018-07-17T20:47:08.933Z,47.36
2018-07-17T20:48:08.926Z,46.96
2018-07-17T20:49:08.942Z,47.44
2018-07-17T20:50:08.911Z,47.36
2018-07-17T20:51:08.934Z,47.56
2018-07-17T20:52:08.874Z,47.96
2018-07-17T20:53:08.878Z,47.36
2018-07-17T20:54:08.911Z,48.36
2018-07-17T20:55:08.844Z,47.96
2018-07-17T20:56:08.869Z,48.16
2018-07-17T20:57:08.822Z,48.69
2018-07-17T20:58:08.810Z,48.58
2018-07-17T20:59:08.801Z,48.99
2018-07-17T21:00:08.796Z,49.08
2018-07-17T21:01:08.809Z,49.19
2018-07-17T21:02:08.766Z,49.29
2018-07-17T21:03:08.762Z,49.19
2018-07-17T21:04:08.814Z,48.99
2018-07-17T21:05:08.733Z,48.79
2018-07-17T21:06:08.736Z,49.39
2018-07-17T21:07:08.752Z,49.58
2018-07-17T21:08:08.702Z,49.71
2018-07-17T21:09:08.689Z,49.99
2018-07-17T21:10:08.682Z,50.21
2018-07-17T21:11:08.704Z,50.21
2018-07-17T21:12:08.657Z,50.51
2018-07-17T21:13:08.651Z,50.11
2018-07-17T21:14:08.672Z,50.62
2018-07-17T21:15:08.622Z,50.51
2018-07-17T21:16:08.609Z,50.92
2018-07-17T21:17:08.629Z,50.81
2018-07-17T21:18:08.584Z,50.71
2018-07-17T21:19:08.575Z,50.71
2018-07-17T21:20:08.567Z,50.74
2018-07-17T21:21:08.603Z,50.74
2018-07-17T21:22:08.543Z,51.24
2018-07-17T21:23:08.529Z,51.24
2018-07-17T21:24:08.555Z,51.14
2018-07-17T21:25:08.507Z,51.04
2018-07-17T21:26:08.503Z,50.96
2018-07-17T21:27:08.493Z,51.37
2018-07-17T21:28:08.478Z,51.76
2018-07-17T21:29:08.482Z,51.87
2018-07-17T21:30:08.482Z,52.07
2018-07-17T21:31:08.450Z,52.47
2018-07-17T21:32:08.430Z,52.17
2018-07-17T21:33:08.423Z,52.47
2018-07-17T21:34:08.410Z,52.26
2018-07-17T21:35:08.446Z,52.47
2018-07-17T21:36:08.447Z,52.77
2018-07-17T21:37:08.418Z,52.07
2018-07-17T21:38:08.366Z,52.87
2018-07-17T21:39:08.354Z,52.80
2018-07-17T21:40:08.382Z,52.69
2018-07-17T21:41:08.371Z,52.69
2018-07-17T21:42:08.330Z,52.69
2018-07-17T21:43:08.306Z,52.69
2018-07-17T21:44:08.302Z,52.69
2018-07-17T21:45:08.291Z,52.69
2018-07-17T21:46:08.309Z,52.59
2018-07-17T21:47:08.303Z,52.80
2018-07-17T21:48:08.255Z,52.89
2018-07-17T21:49:08.244Z,52.69
2018-07-17T21:50:08.258Z,52.69
2018-07-17T21:51:08.229Z,53.00
2018-07-17T21:52:08.240Z,52.80
2018-07-17T21:53:08.201Z,53.30
2018-07-17T21:54:08.186Z,52.80
2018-07-17T21:55:08.204Z,53.59
2018-07-17T21:56:08.163Z,52.72
2018-07-17T21:57:08.175Z,53.70
2018-07-17T21:58:08.144Z,53.39
2018-07-17T21:59:08.135Z,53.80
2018-07-17T22:00:08.183Z,53.62
2018-07-17T22:01:08.116Z,53.70
2018-07-17T22:02:08.095Z,53.52
2018-07-17T22:03:08.097Z,53.62
2018-07-17T22:04:08.088Z,53.82
2018-07-17T22:05:08.102Z,53.52
2018-07-17T22:06:08.082Z,53.92
2018-07-17T22:07:08.072Z,53.92
2018-07-17T22:08:08.031Z,54.33
2018-07-17T22:09:08.023Z,54.13
2018-07-17T22:10:08.019Z,54.13
2018-07-17T22:11:08.067Z,54.15
2018-07-17T22:12:08.029Z,54.13
2018-07-17T22:13:07.976Z,54.55
2018-07-17T22:14:07.967Z,54.33
2018-07-17T22:15:07.957Z,54.25
2018-07-17T22:16:07.942Z,54.75
2018-07-17T22:17:07.964Z,54.55
2018-07-17T22:18:07.921Z,54.55
2018-07-17T22:19:07.906Z,54.85
2018-07-17T22:20:07.900Z,54.85
2018-07-17T22:21:07.916Z,54.65
2018-07-17T22:22:07.877Z,55.16
2018-07-17T22:23:07.869Z,54.85
2018-07-17T22:24:07.855Z,54.75
2018-07-17T22:25:07.845Z,54.85
2018-07-17T22:26:07.866Z,55.05
2018-07-17T22:27:07.827Z,55.35
2018-07-17T22:28:07.900Z,55.28
2018-07-17T22:29:07.825Z,55.18
2018-07-17T22:30:07.795Z,55.26
2018-07-17T22:31:07.780Z,55.28
2018-07-17T22:32:07.777Z,55.46
2018-07-17T22:33:07.751Z,55.35
2018-07-17T22:34:07.775Z,55.26
2018-07-17T22:35:07.731Z,55.26
2018-07-17T22:36:07.719Z,55.46
2018-07-17T22:37:07.757Z,55.55
2018-07-17T22:38:07.696Z,55.66
2018-07-17T22:39:07.710Z,55.79
2018-07-17T22:40:07.683Z,55.88
2018-07-17T22:41:07.697Z,55.88
2018-07-17T22:42:07.654Z,55.38
2018-07-17T22:43:07.644Z,55.99
2018-07-17T22:44:07.667Z,55.99
2018-07-17T22:45:07.624Z,56.29
2018-07-17T22:46:07.647Z,56.19
2018-07-17T22:47:07.597Z,56.09
2018-07-17T22:48:07.586Z,56.29
2018-07-17T22:49:07.616Z,56.29
2018-07-17T22:50:07.572Z,56.49
2018-07-17T22:51:08.271Z,56.41
2018-07-17T22:52:07.548Z,56.51
2018-07-17T22:53:07.527Z,56.59
2018-07-17T22:54:07.561Z,56.69
2018-07-17T22:55:07.510Z,56.71
2018-07-17T22:56:07.534Z,56.49
2018-07-17T22:57:07.482Z,56.69
2018-07-17T22:58:07.516Z,56.71
2018-07-17T22:59:07.469Z,56.71
2018-07-17T23:00:07.452Z,57.02
2018-07-17T23:01:07.441Z,57.02
2018-07-17T23:02:07.491Z,57.02
2018-07-17T23:03:07.456Z,56.82
2018-07-17T23:04:07.399Z,57.42
2018-07-17T23:05:07.389Z,57.32
2018-07-17T23:06:07.386Z,57.52
2018-07-17T23:07:07.369Z,57.52
2018-07-17T23:08:07.395Z,57.42
2018-07-17T23:09:07.347Z,56.82
2018-07-17T23:10:07.427Z,57.12
2018-07-17T23:11:07.326Z,57.32
2018-07-17T23:12:07.323Z,57.12
2018-07-17T23:13:07.350Z,57.42
2018-07-17T23:14:07.294Z,57.52
2018-07-17T23:15:07.279Z,57.42
2018-07-17T23:16:07.271Z,57.42
2018-07-17T23:17:07.259Z,57.82
2018-07-17T23:18:07.267Z,57.52
2018-07-17T23:19:07.269Z,57.52
2018-07-17T23:20:07.257Z,57.32
2018-07-17T23:21:07.212Z,57.22
2018-07-17T23:22:07.204Z,57.62
2018-07-17T23:23:07.201Z,57.62
2018-07-17T23:24:07.179Z,57.55
2018-07-17T23:25:07.193Z,57.35
2018-07-17T23:26:07.165Z,57.85
2018-07-17T23:27:07.141Z,57.85
2018-07-17T23:28:07.168Z,58.25
2018-07-17T23:29:07.131Z,58.25
2018-07-17T23:30:07.165Z,57.85
2018-07-17T23:31:07.098Z,57.85
2018-07-17T23:32:07.088Z,58.86
2018-07-17T23:33:07.080Z,58.86
2018-07-17T23:34:07.066Z,58.98
2018-07-17T23:35:07.109Z,58.45
2018-07-17T23:36:07.045Z,58.78
2018-07-17T23:37:07.034Z,58.58
2018-07-17T23:38:07.020Z,58.75
2018-07-17T23:39:07.017Z,59.28
2018-07-17T23:40:07.026Z,58.98
2018-07-17T23:41:06.986Z,59.39
2018-07-17T23:42:06.979Z,58.38
2018-07-17T23:43:06.975Z,59.28
2018-07-17T23:44:06.959Z,58.98
2018-07-17T23:45:06.970Z,58.58
2018-07-17T23:46:06.933Z,58.98
2018-07-17T23:47:06.918Z,58.88
2018-07-17T23:48:06.950Z,58.88
2018-07-17T23:49:06.896Z,59.72
2018-07-17T23:50:06.901Z,59.62
2018-07-17T23:51:06.873Z,59.82
2018-07-17T23:52:06.860Z,60.22
2018-07-17T23:53:06.871Z,59.82
2018-07-17T23:54:06.890Z,59.79
2018-07-17T23:55:06.830Z,59.62
2018-07-17T23:56:06.819Z,60.52
2018-07-17T23:57:06.838Z,60.60
2018-07-17T23:58:06.797Z,59.69
2018-07-17T23:59:06.781Z,59.89
